sensor_id;sensor_type;location;lat;lon;timestamp;temperature;humidity
16174;DHT22;14031;50.158;8.626;2022-08-21T00:00:22;22.20;99.90
16174;DHT22;14031;50.158;8.626;2022-08-21T00:02:52;22.20;99.90
16174;DHT22;14031;50.158;8.626;2022-08-21T00:05:20;22.10;99.90
16174;DHT22;14031;50.158;8.626;2022-08-21T00:07:47;22.10;99.90
16174;DHT22;14031;50.158;8.626;2022-08-21T00:10:15;22.00;99.90
16174;DHT22;14031;50.158;8.626;2022-08-21T00:12:43;22.00;99.90
16174;DHT22;14031;50.158;8.626;2022-08-21T00:15:13;21.90;99.90
16174;DHT22;14031;50.158;8.626;2022-08-21T00:17:40;21.90;99.90
16174;DHT22;14031;50.158;8.626;2022-08-21T00:20:09;22.00;99.90
16174;DHT22;14031;50.158;8.626;2022-08-21T00:22:36;21.80;99.90
16174;DHT22;14031;50.158;8.626;2022-08-21T00:25:05;21.80;99.90
16174;DHT22;14031;50.158;8.626;2022-08-21T00:27:34;21.90;99.90
16174;DHT22;14031;50.158;8.626;2022-08-21T00:30:03;21.80;99.90
16174;DHT22;14031;50.158;8.626;2022-08-21T00:32:30;21.80;99.90
16174;DHT22;14031;50.158;8.626;2022-08-21T00:34:57;21.80;99.90
16174;DHT22;14031;50.158;8.626;2022-08-21T00:37:24;21.80;99.90
16174;DHT22;14031;50.158;8.626;2022-08-21T00:39:51;21.80;99.90
16174;DHT22;14031;50.158;8.626;2022-08-21T00:42:18;21.80;99.90
16174;DHT22;14031;50.158;8.626;2022-08-21T00:44:48;21.80;99.90
16174;DHT22;14031;50.158;8.626;2022-08-21T00:47:16;21.80;99.90
16174;DHT22;14031;50.158;8.626;2022-08-21T00:49:43;21.70;99.90
16174;DHT22;14031;50.158;8.626;2022-08-21T00:52:15;21.70;99.90
16174;DHT22;14031;50.158;8.626;2022-08-21T00:54:42;21.70;99.90
16174;DHT22;14031;50.158;8.626;2022-08-21T00:57:14;21.70;99.90
16174;DHT22;14031;50.158;8.626;2022-08-21T00:59:44;21.60;99.90
16174;DHT22;14031;50.158;8.626;2022-08-21T01:02:14;21.60;99.90
16174;DHT22;14031;50.158;8.626;2022-08-21T01:04:40;21.60;99.90
16174;DHT22;14031;50.158;8.626;2022-08-21T01:07:08;21.60;99.90
16174;DHT22;14031;50.158;8.626;2022-08-21T01:09:35;21.60;99.90
16174;DHT22;14031;50.158;8.626;2022-08-21T01:12:03;21.50;99.90
16174;DHT22;14031;50.158;8.626;2022-08-21T01:14:31;21.50;99.90
16174;DHT22;14031;50.158;8.626;2022-08-21T01:16:59;21.50;99.90
16174;DHT22;14031;50.158;8.626;2022-08-21T01:19:30;21.50;99.90
16174;DHT22;14031;50.158;8.626;2022-08-21T01:21:58;21.40;99.90
16174;DHT22;14031;50.158;8.626;2022-08-21T01:24:26;21.40;99.90
16174;DHT22;14031;50.158;8.626;2022-08-21T01:26:54;21.40;99.90
16174;DHT22;14031;50.158;8.626;2022-08-21T01:29:29;21.40;99.90
16174;DHT22;14031;50.158;8.626;2022-08-21T01:31:58;21.30;99.90
16174;DHT22;14031;50.158;8.626;2022-08-21T01:34:25;21.30;99.90
16174;DHT22;14031;50.158;8.626;2022-08-21T01:36:54;21.20;99.90
16174;DHT22;14031;50.158;8.626;2022-08-21T01:39:22;21.20;99.90
16174;DHT22;14031;50.158;8.626;2022-08-21T01:41:49;21.20;99.90
16174;DHT22;14031;50.158;8.626;2022-08-21T01:44:15;21.20;99.90
16174;DHT22;14031;50.158;8.626;2022-08-21T01:46:42;21.10;99.90
16174;DHT22;14031;50.158;8.626;2022-08-21T01:49:09;21.00;99.90
16174;DHT22;14031;50.158;8.626;2022-08-21T01:51:36;21.10;99.90
16174;DHT22;14031;50.158;8.626;2022-08-21T01:54:03;21.10;99.90
16174;DHT22;14031;50.158;8.626;2022-08-21T01:56:36;21.00;99.90
16174;DHT22;14031;50.158;8.626;2022-08-21T01:59:02;21.00;99.90
16174;DHT22;14031;50.158;8.626;2022-08-21T02:01:29;21.00;99.90
16174;DHT22;14031;50.158;8.626;2022-08-21T02:03:56;20.90;99.90
16174;DHT22;14031;50.158;8.626;2022-08-21T02:06:25;20.80;99.90
16174;DHT22;14031;50.158;8.626;2022-08-21T02:08:52;20.80;99.90
16174;DHT22;14031;50.158;8.626;2022-08-21T02:11:19;20.80;99.90
16174;DHT22;14031;50.158;8.626;2022-08-21T02:13:47;20.90;99.90
16174;DHT22;14031;50.158;8.626;2022-08-21T02:16:14;20.60;99.90
16174;DHT22;14031;50.158;8.626;2022-08-21T02:18:41;20.70;99.90
16174;DHT22;14031;50.158;8.626;2022-08-21T02:21:08;20.60;99.90
16174;DHT22;14031;50.158;8.626;2022-08-21T02:23:35;20.60;99.90
16174;DHT22;14031;50.158;8.626;2022-08-21T02:26:05;20.60;99.90
16174;DHT22;14031;50.158;8.626;2022-08-21T02:28:32;20.60;99.90
16174;DHT22;14031;50.158;8.626;2022-08-21T02:31:01;20.50;99.90
16174;DHT22;14031;50.158;8.626;2022-08-21T02:33:29;20.50;99.90
16174;DHT22;14031;50.158;8.626;2022-08-21T02:35:57;20.50;99.90
16174;DHT22;14031;50.158;8.626;2022-08-21T02:38:29;20.40;99.90
16174;DHT22;14031;50.158;8.626;2022-08-21T02:40:58;20.40;99.90
16174;DHT22;14031;50.158;8.626;2022-08-21T02:43:26;20.40;99.90
16174;DHT22;14031;50.158;8.626;2022-08-21T02:45:55;20.20;99.90
16174;DHT22;14031;50.158;8.626;2022-08-21T02:48:27;20.30;99.90
16174;DHT22;14031;50.158;8.626;2022-08-21T02:50:56;20.30;99.90
16174;DHT22;14031;50.158;8.626;2022-08-21T02:53:24;20.30;99.90
16174;DHT22;14031;50.158;8.626;2022-08-21T02:55:52;20.20;99.90
16174;DHT22;14031;50.158;8.626;2022-08-21T02:58:22;20.20;99.90
16174;DHT22;14031;50.158;8.626;2022-08-21T03:00:50;20.20;99.90
16174;DHT22;14031;50.158;8.626;2022-08-21T03:03:17;20.10;99.90
16174;DHT22;14031;50.158;8.626;2022-08-21T03:05:47;20.10;99.90
16174;DHT22;14031;50.158;8.626;2022-08-21T03:08:15;20.00;99.90
16174;DHT22;14031;50.158;8.626;2022-08-21T03:10:45;20.00;99.90
16174;DHT22;14031;50.158;8.626;2022-08-21T03:13:12;20.00;99.90
16174;DHT22;14031;50.158;8.626;2022-08-21T03:15:40;19.90;99.90
16174;DHT22;14031;50.158;8.626;2022-08-21T03:18:08;19.80;99.90
16174;DHT22;14031;50.158;8.626;2022-08-21T03:20:38;19.90;99.90
16174;DHT22;14031;50.158;8.626;2022-08-21T03:23:07;19.90;99.90
16174;DHT22;14031;50.158;8.626;2022-08-21T03:25:35;19.80;99.90
16174;DHT22;14031;50.158;8.626;2022-08-21T03:28:03;19.80;99.90
16174;DHT22;14031;50.158;8.626;2022-08-21T03:30:30;19.80;99.90
16174;DHT22;14031;50.158;8.626;2022-08-21T03:32:58;19.80;99.90
16174;DHT22;14031;50.158;8.626;2022-08-21T03:35:25;19.70;99.90
16174;DHT22;14031;50.158;8.626;2022-08-21T03:37:52;19.70;99.90
16174;DHT22;14031;50.158;8.626;2022-08-21T03:40:21;19.70;99.90
16174;DHT22;14031;50.158;8.626;2022-08-21T03:42:49;19.60;99.90
16174;DHT22;14031;50.158;8.626;2022-08-21T03:45:17;19.60;99.90
16174;DHT22;14031;50.158;8.626;2022-08-21T03:47:52;19.60;99.90
16174;DHT22;14031;50.158;8.626;2022-08-21T03:50:19;19.60;99.90
16174;DHT22;14031;50.158;8.626;2022-08-21T03:52:46;19.50;99.90
16174;DHT22;14031;50.158;8.626;2022-08-21T03:55:12;19.50;99.90
16174;DHT22;14031;50.158;8.626;2022-08-21T03:57:41;19.50;99.90
16174;DHT22;14031;50.158;8.626;2022-08-21T04:00:10;19.50;99.90
16174;DHT22;14031;50.158;8.626;2022-08-21T04:02:37;19.40;99.90
16174;DHT22;14031;50.158;8.626;2022-08-21T04:05:05;19.40;99.90
16174;DHT22;14031;50.158;8.626;2022-08-21T04:07:32;19.40;99.90
16174;DHT22;14031;50.158;8.626;2022-08-21T04:09:59;19.40;99.90
16174;DHT22;14031;50.158;8.626;2022-08-21T04:12:26;19.40;99.90
16174;DHT22;14031;50.158;8.626;2022-08-21T04:14:54;19.40;99.90
16174;DHT22;14031;50.158;8.626;2022-08-21T04:17:21;19.30;99.90
16174;DHT22;14031;50.158;8.626;2022-08-21T04:19:48;19.30;99.90
16174;DHT22;14031;50.158;8.626;2022-08-21T04:22:15;19.20;99.90
16174;DHT22;14031;50.158;8.626;2022-08-21T04:24:43;19.20;99.90
16174;DHT22;14031;50.158;8.626;2022-08-21T04:27:10;19.20;99.90
16174;DHT22;14031;50.158;8.626;2022-08-21T04:29:37;19.20;99.90
16174;DHT22;14031;50.158;8.626;2022-08-21T04:32:06;19.20;99.90
16174;DHT22;14031;50.158;8.626;2022-08-21T04:34:33;19.20;99.90
16174;DHT22;14031;50.158;8.626;2022-08-21T04:36:59;19.20;99.90
16174;DHT22;14031;50.158;8.626;2022-08-21T04:39:26;19.20;99.90
16174;DHT22;14031;50.158;8.626;2022-08-21T04:41:53;19.10;99.90
16174;DHT22;14031;50.158;8.626;2022-08-21T04:44:20;19.10;99.90
16174;DHT22;14031;50.158;8.626;2022-08-21T04:46:47;19.10;99.90
16174;DHT22;14031;50.158;8.626;2022-08-21T04:49:15;19.10;99.90
16174;DHT22;14031;50.158;8.626;2022-08-21T04:51:42;19.10;99.90
16174;DHT22;14031;50.158;8.626;2022-08-21T04:54:12;19.20;99.90
16174;DHT22;14031;50.158;8.626;2022-08-21T04:56:42;19.10;99.90
16174;DHT22;14031;50.158;8.626;2022-08-21T04:59:14;19.10;99.90
16174;DHT22;14031;50.158;8.626;2022-08-21T05:01:42;19.20;99.90
16174;DHT22;14031;50.158;8.626;2022-08-21T05:04:11;19.10;99.90
16174;DHT22;14031;50.158;8.626;2022-08-21T05:06:42;19.20;99.90
16174;DHT22;14031;50.158;8.626;2022-08-21T05:09:13;19.20;99.90
16174;DHT22;14031;50.158;8.626;2022-08-21T05:11:41;19.10;99.90
16174;DHT22;14031;50.158;8.626;2022-08-21T05:14:10;19.10;99.90
16174;DHT22;14031;50.158;8.626;2022-08-21T05:16:38;19.10;99.90
16174;DHT22;14031;50.158;8.626;2022-08-21T05:19:05;19.20;99.90
16174;DHT22;14031;50.158;8.626;2022-08-21T05:21:32;19.20;99.90
16174;DHT22;14031;50.158;8.626;2022-08-21T05:24:00;19.20;99.90
16174;DHT22;14031;50.158;8.626;2022-08-21T05:26:27;19.20;99.90
16174;DHT22;14031;50.158;8.626;2022-08-21T05:28:55;19.30;99.90
16174;DHT22;14031;50.158;8.626;2022-08-21T05:31:22;19.30;99.90
16174;DHT22;14031;50.158;8.626;2022-08-21T05:33:49;19.30;99.90
16174;DHT22;14031;50.158;8.626;2022-08-21T05:36:17;19.30;99.90
16174;DHT22;14031;50.158;8.626;2022-08-21T05:38:44;19.40;99.90
16174;DHT22;14031;50.158;8.626;2022-08-21T05:41:12;19.40;99.90
16174;DHT22;14031;50.158;8.626;2022-08-21T05:43:39;19.50;99.90
16174;DHT22;14031;50.158;8.626;2022-08-21T05:46:07;19.50;99.90
16174;DHT22;14031;50.158;8.626;2022-08-21T05:48:35;19.50;99.90
16174;DHT22;14031;50.158;8.626;2022-08-21T05:51:05;19.50;99.90
16174;DHT22;14031;50.158;8.626;2022-08-21T05:53:32;19.60;99.90
16174;DHT22;14031;50.158;8.626;2022-08-21T05:55:59;19.60;99.90
16174;DHT22;14031;50.158;8.626;2022-08-21T05:58:31;19.70;99.90
16174;DHT22;14031;50.158;8.626;2022-08-21T06:01:00;19.70;99.90
16174;DHT22;14031;50.158;8.626;2022-08-21T06:03:29;19.70;99.90
16174;DHT22;14031;50.158;8.626;2022-08-21T06:05:58;19.80;99.90
16174;DHT22;14031;50.158;8.626;2022-08-21T06:08:25;19.80;99.90
16174;DHT22;14031;50.158;8.626;2022-08-21T06:10:54;19.80;99.90
16174;DHT22;14031;50.158;8.626;2022-08-21T06:13:21;19.90;99.90
16174;DHT22;14031;50.158;8.626;2022-08-21T06:15:59;19.90;99.90
16174;DHT22;14031;50.158;8.626;2022-08-21T06:18:26;20.00;99.90
16174;DHT22;14031;50.158;8.626;2022-08-21T06:20:53;20.00;99.90
16174;DHT22;14031;50.158;8.626;2022-08-21T06:23:20;20.00;99.90
16174;DHT22;14031;50.158;8.626;2022-08-21T06:25:47;20.00;99.90
16174;DHT22;14031;50.158;8.626;2022-08-21T06:28:13;20.10;99.90
16174;DHT22;14031;50.158;8.626;2022-08-21T06:30:40;20.10;99.90
16174;DHT22;14031;50.158;8.626;2022-08-21T06:33:09;20.20;99.90
16174;DHT22;14031;50.158;8.626;2022-08-21T06:35:35;20.40;99.90
16174;DHT22;14031;50.158;8.626;2022-08-21T06:38:03;20.30;99.90
16174;DHT22;14031;50.158;8.626;2022-08-21T06:40:31;20.40;99.90
16174;DHT22;14031;50.158;8.626;2022-08-21T06:42:58;20.40;99.90
16174;DHT22;14031;50.158;8.626;2022-08-21T06:45:25;20.50;99.90
16174;DHT22;14031;50.158;8.626;2022-08-21T06:47:52;20.50;99.90
16174;DHT22;14031;50.158;8.626;2022-08-21T06:50:20;20.50;99.90
16174;DHT22;14031;50.158;8.626;2022-08-21T06:52:47;20.50;99.90
16174;DHT22;14031;50.158;8.626;2022-08-21T06:55:14;20.60;99.90
16174;DHT22;14031;50.158;8.626;2022-08-21T06:57:41;20.60;99.90
16174;DHT22;14031;50.158;8.626;2022-08-21T07:00:09;20.70;99.90
16174;DHT22;14031;50.158;8.626;2022-08-21T07:02:36;20.70;99.90
16174;DHT22;14031;50.158;8.626;2022-08-21T07:05:04;20.80;99.90
16174;DHT22;14031;50.158;8.626;2022-08-21T07:07:32;20.90;99.90
16174;DHT22;14031;50.158;8.626;2022-08-21T07:09:59;21.00;99.90
16174;DHT22;14031;50.158;8.626;2022-08-21T07:12:26;21.10;99.90
16174;DHT22;14031;50.158;8.626;2022-08-21T07:14:52;21.10;99.90
16174;DHT22;14031;50.158;8.626;2022-08-21T07:17:19;21.20;99.90
16174;DHT22;14031;50.158;8.626;2022-08-21T07:19:46;21.30;99.90
16174;DHT22;14031;50.158;8.626;2022-08-21T07:22:18;21.30;99.90
16174;DHT22;14031;50.158;8.626;2022-08-21T07:24:47;21.40;99.90
16174;DHT22;14031;50.158;8.626;2022-08-21T07:27:14;21.50;99.90
16174;DHT22;14031;50.158;8.626;2022-08-21T07:29:41;21.50;99.90
16174;DHT22;14031;50.158;8.626;2022-08-21T07:32:08;21.60;99.90
16174;DHT22;14031;50.158;8.626;2022-08-21T07:34:35;21.70;99.90
16174;DHT22;14031;50.158;8.626;2022-08-21T07:37:02;21.80;99.90
16174;DHT22;14031;50.158;8.626;2022-08-21T07:39:29;21.90;99.90
16174;DHT22;14031;50.158;8.626;2022-08-21T07:41:57;21.90;99.90
16174;DHT22;14031;50.158;8.626;2022-08-21T07:44:24;21.90;99.90
16174;DHT22;14031;50.158;8.626;2022-08-21T07:46:51;22.00;99.90
16174;DHT22;14031;50.158;8.626;2022-08-21T07:49:18;22.00;99.90
16174;DHT22;14031;50.158;8.626;2022-08-21T07:51:45;22.20;99.90
16174;DHT22;14031;50.158;8.626;2022-08-21T07:54:11;22.20;99.90
16174;DHT22;14031;50.158;8.626;2022-08-21T07:56:38;22.10;99.90
16174;DHT22;14031;50.158;8.626;2022-08-21T07:59:07;22.20;99.90
16174;DHT22;14031;50.158;8.626;2022-08-21T08:01:33;22.30;99.90
16174;DHT22;14031;50.158;8.626;2022-08-21T08:04:00;22.40;99.90
16174;DHT22;14031;50.158;8.626;2022-08-21T08:06:27;22.50;99.90
16174;DHT22;14031;50.158;8.626;2022-08-21T08:08:54;22.60;99.90
16174;DHT22;14031;50.158;8.626;2022-08-21T08:11:21;22.60;99.90
16174;DHT22;14031;50.158;8.626;2022-08-21T08:13:49;22.70;99.90
16174;DHT22;14031;50.158;8.626;2022-08-21T08:16:18;22.80;99.90
16174;DHT22;14031;50.158;8.626;2022-08-21T08:18:45;22.80;99.90
16174;DHT22;14031;50.158;8.626;2022-08-21T08:21:14;22.90;99.90
16174;DHT22;14031;50.158;8.626;2022-08-21T08:23:43;22.90;99.90
16174;DHT22;14031;50.158;8.626;2022-08-21T08:26:10;23.00;99.90
16174;DHT22;14031;50.158;8.626;2022-08-21T08:28:37;23.10;99.90
16174;DHT22;14031;50.158;8.626;2022-08-21T08:31:04;23.10;99.90
16174;DHT22;14031;50.158;8.626;2022-08-21T08:33:32;23.20;99.90
16174;DHT22;14031;50.158;8.626;2022-08-21T08:35:59;23.20;99.90
16174;DHT22;14031;50.158;8.626;2022-08-21T08:38:26;23.30;99.90
16174;DHT22;14031;50.158;8.626;2022-08-21T08:40:55;23.30;99.90
16174;DHT22;14031;50.158;8.626;2022-08-21T08:43:27;23.30;99.90
16174;DHT22;14031;50.158;8.626;2022-08-21T08:45:56;23.40;99.90
16174;DHT22;14031;50.158;8.626;2022-08-21T08:48:36;23.50;99.90
16174;DHT22;14031;50.158;8.626;2022-08-21T08:53:45;23.70;99.90
16174;DHT22;14031;50.158;8.626;2022-08-21T08:56:13;23.90;99.90
16174;DHT22;14031;50.158;8.626;2022-08-21T08:58:42;23.90;99.90
16174;DHT22;14031;50.158;8.626;2022-08-21T09:01:15;24.00;99.90
16174;DHT22;14031;50.158;8.626;2022-08-21T09:03:44;24.10;99.90
16174;DHT22;14031;50.158;8.626;2022-08-21T09:06:22;24.20;99.90
16174;DHT22;14031;50.158;8.626;2022-08-21T09:08:59;24.30;99.90
16174;DHT22;14031;50.158;8.626;2022-08-21T09:11:32;24.40;99.90
16174;DHT22;14031;50.158;8.626;2022-08-21T09:14:13;24.40;99.90
16174;DHT22;14031;50.158;8.626;2022-08-21T09:16:51;24.40;99.90
16174;DHT22;14031;50.158;8.626;2022-08-21T09:19:36;24.30;99.90
16174;DHT22;14031;50.158;8.626;2022-08-21T09:22:09;24.40;99.90
16174;DHT22;14031;50.158;8.626;2022-08-21T09:24:50;24.50;99.90
16174;DHT22;14031;50.158;8.626;2022-08-21T09:27:19;24.70;99.90
16174;DHT22;14031;50.158;8.626;2022-08-21T09:29:50;24.80;99.90
16174;DHT22;14031;50.158;8.626;2022-08-21T09:32:20;24.90;99.90
16174;DHT22;14031;50.158;8.626;2022-08-21T09:34:58;25.00;99.90
16174;DHT22;14031;50.158;8.626;2022-08-21T09:37:26;25.10;99.90
16174;DHT22;14031;50.158;8.626;2022-08-21T09:39:55;25.20;99.90
16174;DHT22;14031;50.158;8.626;2022-08-21T09:42:25;25.20;99.90
16174;DHT22;14031;50.158;8.626;2022-08-21T09:45:09;25.30;99.90
16174;DHT22;14031;50.158;8.626;2022-08-21T09:47:36;25.40;99.90
16174;DHT22;14031;50.158;8.626;2022-08-21T09:50:14;25.50;99.90
16174;DHT22;14031;50.158;8.626;2022-08-21T09:52:46;25.60;99.90
16174;DHT22;14031;50.158;8.626;2022-08-21T09:55:18;25.50;99.90
16174;DHT22;14031;50.158;8.626;2022-08-21T09:58:00;25.50;99.90
16174;DHT22;14031;50.158;8.626;2022-08-21T10:00:30;25.40;99.90
16174;DHT22;14031;50.158;8.626;2022-08-21T10:03:15;25.40;99.90
16174;DHT22;14031;50.158;8.626;2022-08-21T10:05:54;25.50;99.90
16174;DHT22;14031;50.158;8.626;2022-08-21T10:08:23;25.70;99.90
16174;DHT22;14031;50.158;8.626;2022-08-21T10:10:53;25.70;99.90
16174;DHT22;14031;50.158;8.626;2022-08-21T10:13:27;25.70;99.90
16174;DHT22;14031;50.158;8.626;2022-08-21T10:16:00;25.80;99.90
16174;DHT22;14031;50.158;8.626;2022-08-21T10:18:36;25.90;99.90
16174;DHT22;14031;50.158;8.626;2022-08-21T10:21:13;25.80;99.90
16174;DHT22;14031;50.158;8.626;2022-08-21T10:23:51;25.70;99.90
16174;DHT22;14031;50.158;8.626;2022-08-21T10:26:32;25.70;99.90
16174;DHT22;14031;50.158;8.626;2022-08-21T10:29:07;25.80;99.90
16174;DHT22;14031;50.158;8.626;2022-08-21T10:31:46;26.00;99.90
16174;DHT22;14031;50.158;8.626;2022-08-21T10:34:29;26.10;99.90
16174;DHT22;14031;50.158;8.626;2022-08-21T10:37:10;26.30;99.90
16174;DHT22;14031;50.158;8.626;2022-08-21T10:39:48;26.50;99.90
16174;DHT22;14031;50.158;8.626;2022-08-21T10:42:29;26.60;99.90
16174;DHT22;14031;50.158;8.626;2022-08-21T10:45:09;26.70;99.90
16174;DHT22;14031;50.158;8.626;2022-08-21T10:47:41;26.90;99.90
16174;DHT22;14031;50.158;8.626;2022-08-21T10:50:19;26.90;99.90
16174;DHT22;14031;50.158;8.626;2022-08-21T10:53:00;27.00;99.90
16174;DHT22;14031;50.158;8.626;2022-08-21T10:55:32;27.10;99.90
16174;DHT22;14031;50.158;8.626;2022-08-21T10:58:04;27.20;99.90
16174;DHT22;14031;50.158;8.626;2022-08-21T11:00:36;27.20;99.90
16174;DHT22;14031;50.158;8.626;2022-08-21T11:03:10;27.20;99.90
16174;DHT22;14031;50.158;8.626;2022-08-21T11:05:41;27.30;99.90
16174;DHT22;14031;50.158;8.626;2022-08-21T11:08:12;27.40;99.90
16174;DHT22;14031;50.158;8.626;2022-08-21T11:10:44;27.50;99.90
16174;DHT22;14031;50.158;8.626;2022-08-21T11:13:15;27.60;99.90
16174;DHT22;14031;50.158;8.626;2022-08-21T11:15:50;27.70;99.90
16174;DHT22;14031;50.158;8.626;2022-08-21T11:18:24;27.80;99.90
16174;DHT22;14031;50.158;8.626;2022-08-21T11:21:01;27.90;99.90
16174;DHT22;14031;50.158;8.626;2022-08-21T11:23:37;28.00;99.90
16174;DHT22;14031;50.158;8.626;2022-08-21T11:26:09;28.10;99.90
16174;DHT22;14031;50.158;8.626;2022-08-21T11:28:43;28.20;99.90
16174;DHT22;14031;50.158;8.626;2022-08-21T11:31:23;28.40;99.90
16174;DHT22;14031;50.158;8.626;2022-08-21T11:34:02;28.50;99.90
16174;DHT22;14031;50.158;8.626;2022-08-21T11:36:37;28.60;99.60
16174;DHT22;14031;50.158;8.626;2022-08-21T11:39:16;28.70;99.40
16174;DHT22;14031;50.158;8.626;2022-08-21T11:41:48;28.80;97.70
16174;DHT22;14031;50.158;8.626;2022-08-21T11:44:28;28.80;98.30
16174;DHT22;14031;50.158;8.626;2022-08-21T11:47:05;28.80;98.20
16174;DHT22;14031;50.158;8.626;2022-08-21T11:49:49;29.00;98.30
16174;DHT22;14031;50.158;8.626;2022-08-21T11:52:22;29.10;97.90
16174;DHT22;14031;50.158;8.626;2022-08-21T11:54:55;29.40;97.30
16174;DHT22;14031;50.158;8.626;2022-08-21T11:57:25;29.40;95.70
16174;DHT22;14031;50.158;8.626;2022-08-21T11:59:58;29.50;96.40
16174;DHT22;14031;50.158;8.626;2022-08-21T12:02:31;29.70;95.80
16174;DHT22;14031;50.158;8.626;2022-08-21T12:05:03;29.70;94.60
16174;DHT22;14031;50.158;8.626;2022-08-21T12:07:38;29.90;94.30
16174;DHT22;14031;50.158;8.626;2022-08-21T12:10:10;29.90;94.80
16174;DHT22;14031;50.158;8.626;2022-08-21T12:12:39;30.00;93.40
16174;DHT22;14031;50.158;8.626;2022-08-21T12:15:17;30.00;93.00
16174;DHT22;14031;50.158;8.626;2022-08-21T12:17:56;30.10;93.80
16174;DHT22;14031;50.158;8.626;2022-08-21T12:20:33;30.10;92.40
16174;DHT22;14031;50.158;8.626;2022-08-21T12:23:15;30.30;93.30
16174;DHT22;14031;50.158;8.626;2022-08-21T12:25:47;30.50;93.00
16174;DHT22;14031;50.158;8.626;2022-08-21T12:28:16;30.80;93.30
16174;DHT22;14031;50.158;8.626;2022-08-21T12:30:48;31.10;91.40
16174;DHT22;14031;50.158;8.626;2022-08-21T12:33:22;31.30;90.60
16174;DHT22;14031;50.158;8.626;2022-08-21T12:35:52;31.40;89.70
16174;DHT22;14031;50.158;8.626;2022-08-21T12:38:22;31.40;89.20
16174;DHT22;14031;50.158;8.626;2022-08-21T12:40:54;31.40;88.40
16174;DHT22;14031;50.158;8.626;2022-08-21T12:43:27;31.40;87.50
16174;DHT22;14031;50.158;8.626;2022-08-21T12:45:55;31.40;90.00
16174;DHT22;14031;50.158;8.626;2022-08-21T12:48:27;31.30;86.40
16174;DHT22;14031;50.158;8.626;2022-08-21T12:50:57;31.50;87.30
16174;DHT22;14031;50.158;8.626;2022-08-21T12:53:28;31.80;87.50
16174;DHT22;14031;50.158;8.626;2022-08-21T12:56:01;32.00;87.80
16174;DHT22;14031;50.158;8.626;2022-08-21T12:58:29;32.20;86.70
16174;DHT22;14031;50.158;8.626;2022-08-21T13:00:59;32.40;84.10
16174;DHT22;14031;50.158;8.626;2022-08-21T13:03:30;32.50;81.80
16174;DHT22;14031;50.158;8.626;2022-08-21T13:05:58;32.50;81.10
16174;DHT22;14031;50.158;8.626;2022-08-21T13:08:27;32.40;82.50
16174;DHT22;14031;50.158;8.626;2022-08-21T13:11:00;32.30;84.20
16174;DHT22;14031;50.158;8.626;2022-08-21T13:13:28;32.10;83.40
16174;DHT22;14031;50.158;8.626;2022-08-21T13:16:00;32.00;83.00
16174;DHT22;14031;50.158;8.626;2022-08-21T13:18:30;32.20;82.90
16174;DHT22;14031;50.158;8.626;2022-08-21T13:21:07;32.50;83.10
16174;DHT22;14031;50.158;8.626;2022-08-21T13:23:36;32.80;82.10
16174;DHT22;14031;50.158;8.626;2022-08-21T13:26:13;33.10;82.30
16174;DHT22;14031;50.158;8.626;2022-08-21T13:28:40;33.50;81.70
16174;DHT22;14031;50.158;8.626;2022-08-21T13:31:10;33.80;77.00
16174;DHT22;14031;50.158;8.626;2022-08-21T13:33:38;34.00;75.80
16174;DHT22;14031;50.158;8.626;2022-08-21T13:36:10;34.10;78.50
16174;DHT22;14031;50.158;8.626;2022-08-21T13:38:40;34.10;79.20
16174;DHT22;14031;50.158;8.626;2022-08-21T13:41:16;34.30;78.50
16174;DHT22;14031;50.158;8.626;2022-08-21T13:43:49;34.50;74.80
16174;DHT22;14031;50.158;8.626;2022-08-21T13:46:18;34.70;72.80
16174;DHT22;14031;50.158;8.626;2022-08-21T13:48:47;34.90;74.60
16174;DHT22;14031;50.158;8.626;2022-08-21T13:51:14;35.10;73.50
16174;DHT22;14031;50.158;8.626;2022-08-21T13:53:45;35.20;72.90
16174;DHT22;14031;50.158;8.626;2022-08-21T13:56:25;35.30;71.20
16174;DHT22;14031;50.158;8.626;2022-08-21T13:58:53;35.50;70.90
16174;DHT22;14031;50.158;8.626;2022-08-21T14:01:25;35.50;69.50
16174;DHT22;14031;50.158;8.626;2022-08-21T14:03:55;35.70;69.70
16174;DHT22;14031;50.158;8.626;2022-08-21T14:06:26;35.70;66.40
16174;DHT22;14031;50.158;8.626;2022-08-21T14:08:56;35.70;68.40
16174;DHT22;14031;50.158;8.626;2022-08-21T14:11:26;35.70;65.30
16174;DHT22;14031;50.158;8.626;2022-08-21T14:13:58;35.80;66.00
16174;DHT22;14031;50.158;8.626;2022-08-21T14:16:27;35.70;65.40
16174;DHT22;14031;50.158;8.626;2022-08-21T14:19:08;35.90;63.90
16174;DHT22;14031;50.158;8.626;2022-08-21T14:21:39;36.20;65.20
16174;DHT22;14031;50.158;8.626;2022-08-21T14:24:09;36.50;62.50
16174;DHT22;14031;50.158;8.626;2022-08-21T14:26:46;36.80;65.20
16174;DHT22;14031;50.158;8.626;2022-08-21T14:29:15;37.10;64.40
16174;DHT22;14031;50.158;8.626;2022-08-21T14:31:43;37.20;63.20
16174;DHT22;14031;50.158;8.626;2022-08-21T14:34:14;37.40;63.10
16174;DHT22;14031;50.158;8.626;2022-08-21T14:36:42;37.80;62.90
16174;DHT22;14031;50.158;8.626;2022-08-21T14:39:09;38.10;61.00
16174;DHT22;14031;50.158;8.626;2022-08-21T14:41:38;38.40;58.50
16174;DHT22;14031;50.158;8.626;2022-08-21T14:44:06;38.50;59.60
16174;DHT22;14031;50.158;8.626;2022-08-21T14:46:33;38.80;58.90
16174;DHT22;14031;50.158;8.626;2022-08-21T14:49:01;38.70;57.70
16174;DHT22;14031;50.158;8.626;2022-08-21T14:51:27;39.00;57.60
16174;DHT22;14031;50.158;8.626;2022-08-21T14:53:54;39.10;57.40
16174;DHT22;14031;50.158;8.626;2022-08-21T14:56:21;39.20;56.90
16174;DHT22;14031;50.158;8.626;2022-08-21T14:58:52;39.20;56.70
16174;DHT22;14031;50.158;8.626;2022-08-21T15:01:21;39.40;54.80
16174;DHT22;14031;50.158;8.626;2022-08-21T15:03:48;39.40;54.80
16174;DHT22;14031;50.158;8.626;2022-08-21T15:06:17;39.40;54.70
16174;DHT22;14031;50.158;8.626;2022-08-21T15:08:46;39.40;55.80
16174;DHT22;14031;50.158;8.626;2022-08-21T15:11:18;39.50;53.70
16174;DHT22;14031;50.158;8.626;2022-08-21T15:13:45;39.40;53.80
16174;DHT22;14031;50.158;8.626;2022-08-21T15:16:14;39.40;53.80
16174;DHT22;14031;50.158;8.626;2022-08-21T15:18:41;39.40;54.60
16174;DHT22;14031;50.158;8.626;2022-08-21T15:21:08;39.60;55.80
16174;DHT22;14031;50.158;8.626;2022-08-21T15:23:35;39.70;55.80
16174;DHT22;14031;50.158;8.626;2022-08-21T15:26:03;39.80;54.50
16174;DHT22;14031;50.158;8.626;2022-08-21T15:28:30;39.80;55.80
16174;DHT22;14031;50.158;8.626;2022-08-21T15:30:59;40.00;55.70
16174;DHT22;14031;50.158;8.626;2022-08-21T15:33:28;40.30;54.20
16174;DHT22;14031;50.158;8.626;2022-08-21T15:35:55;40.40;53.30
16174;DHT22;14031;50.158;8.626;2022-08-21T15:38:22;40.40;55.00
16174;DHT22;14031;50.158;8.626;2022-08-21T15:40:49;39.90;54.60
16174;DHT22;14031;50.158;8.626;2022-08-21T15:43:22;39.40;56.10
16174;DHT22;14031;50.158;8.626;2022-08-21T15:45:50;38.60;52.80
16174;DHT22;14031;50.158;8.626;2022-08-21T15:48:17;37.60;55.10